Главная страница
METAR-TAF:

METAR-TAF

Аэропорты :

Ла-Тонтута, Новая Каледония

широта: 22-01S, долгота: 166-13E, высота над уровнем моря: 16 м

Текущие метеонаблюдения

Эта сводка был подготовлена 18 минут назад, в 09:30 UTC
Ветер 4 Узел от юго-восточный
Температура 27°C
Влажность 66%
Давление 1009 hPa
Видимость 10 км и более

METAR: NWWW 240930Z AUTO 13004KT 9999 FEW052/// BKN210/// 27/20 Q1009 NOSIG

Время: 20:48 (09:48 UTC)

Прогноз

Эта сводка был подготовлена 48 минут назад, в 09:00 UTC
Прогноз действительный с 24-го 09 UTC до 25-го 06 UTC
Ветер 6 Узел от восточно-юго-восточный
Видимость 10 км и более
небольшая облачность на высоте 6000 фута
Рассеянная облачность на высоте 22000 фута
Вероятность 40% :
временами
С 24-го 12 UTC до 24-го 20 UTC
Отдельные облака на высоте 2000 фута, мощно-кучевые.
ливневые дожди
изменения
С 24-го 22 UTC до 24-го 24 UTC
Ветер 16 Узел от юго-восточный

TAF: NWWW 240900Z 2409/2506 12006KT 9999 FEW060 BKN220 PROB40 TEMPO 2412/2420 SHRA SCT020TCU BECMG 2422/2424 14016KT

Метеонаблюдения и прогнозы для более 4000 аэропортов (сводки METAR и TAF).

Имеющиеся станции представлены на карте желтыми и красными точками.

Чтобы увидеть название станции, наведите на нее мышь.

Затем щелкните, чтобы увидеть метеонаблюдения и метеопрогнозы.

Управление картой: чтобы увеличить масштаб, щелкните зеленые кнопки с черным крестиком; чтобы уменьшить масштаб, щелкните зеленую кнопку с тире; для просмотра соседних карт щелкайте зеленые стрелки.


METAR-TAF: